Time;durP1;ratioP1;P1;durP2;ratioP2;P2;SDS_P1;SDS_P2;PMS_P1;PMS_P2;Temp;Humidity;BMP_temperature;BMP_pressure;BME280_temperature;BME280_humidity;BME280_pressure;Samples;Min_cycle;Max_cycle;Signal;HPM_P1;HPM_P2
2021/12/16 00:02:01;;;;;;;25.13;19.47;;;;;;;4.85;64.40;100402.34;5035276;28;20033;-77
2021/12/16 00:29:19;;;;;;;30.20;21.87;;;;;;;5.19;64.84;100465.13;5035015;28;20059;-77
2021/12/16 00:34:11;;;;;;;33.77;24.10;;;;;;;5.19;64.80;100465.13;5035160;28;20025;-76
2021/12/16 00:36:42;;;;;;;33.60;23.33;;;;;;;4.87;64.58;100418.75;5034746;28;20044;-76
2021/12/16 00:39:12;;;;;;;30.73;22.48;;;;;;;5.17;64.74;100472.25;5050164;28;20090;-77
2021/12/16 00:41:39;;;;;;;33.00;23.20;;;;;;;4.86;64.64;100422.31;5034935;28;20395;-77
2021/12/16 00:47:12;;;;;;;31.20;23.93;;;;;;;5.04;64.90;100464.53;5033901;28;20525;-77
2021/12/16 00:49:44;;;;;;;37.90;24.80;;;;;;;5.00;65.01;100450.84;5033708;28;20104;-77
2021/12/16 00:55:12;;;;;;;35.53;26.57;;;;;;;5.00;65.16;100457.88;5034047;28;20045;-78
2021/12/16 00:57:38;;;;;;;32.27;24.43;;;;;;;5.08;65.20;100455.50;5033419;28;20061;-77
2021/12/16 01:00:07;;;;;;;34.37;24.67;;;;;;;4.98;65.22;100455.38;5048920;28;20490;-77
2021/12/16 01:05:42;;;;;;;40.27;28.37;;;;;;;5.05;65.19;100472.25;5033260;28;20025;-76
2021/12/16 01:51:40;;;;;;;35.27;25.23;;;;;;;5.03;65.03;100440.16;5033025;28;20120;-76
2021/12/16 01:57:07;;;;;;;36.57;25.53;;;;;;;4.54;64.93;100356.00;5032328;28;20064;-77
2021/12/16 01:59:35;;;;;;;31.03;22.30;;;;;;;5.14;64.76;100433.22;5032219;28;20108;-77
2021/12/16 02:05:19;;;;;;;29.20;20.20;;;;;;;4.72;64.29;100357.16;5027306;28;20491;-77
2021/12/16 02:10:13;;;;;;;28.10;20.70;;;;;;;4.79;64.32;100369.66;5032989;28;20032;-77
2021/12/16 02:12:56;;;;;;;26.90;20.73;;;;;;;5.04;64.18;100405.16;5032638;28;20021;-76
2021/12/16 02:32:29;;;;;;;23.73;18.67;;;;;;;5.30;63.65;100425.84;5032785;28;20029;-77
2021/12/16 02:36:47;;;;;;;25.83;17.77;;;;;;;4.48;63.27;100286.72;5032706;28;20094;-77
2021/12/16 02:39:24;;;;;;;23.57;17.07;;;;;;;5.32;63.15;100424.78;5031559;28;20049;-77
2021/12/16 02:41:55;;;;;;;25.03;18.17;;;;;;;5.33;62.99;100428.22;5032184;28;20030;-77
2021/12/16 02:50:08;;;;;;;25.90;19.10;;;;;;;5.27;63.04;100419.06;5027818;28;20033;-77
2021/12/16 02:52:33;;;;;;;25.17;18.80;;;;;;;4.90;62.77;100360.94;5032341;28;20485;-77
2021/12/16 02:54:59;;;;;;;24.00;17.97;;;;;;;5.24;62.86;100413.25;5032397;28;20025;-77
2021/12/16 02:57:25;;;;;;;22.80;17.37;;;;;;;4.40;62.47;100279.44;5032483;28;20025;-77
2021/12/16 02:59:53;;;;;;;25.87;19.93;;;;;;;5.22;62.61;100415.16;5032645;28;20101;-77
2021/12/16 03:02:20;;;;;;;26.77;20.10;;;;;;;5.17;62.69;100412.03;5031641;28;20490;-77
2021/12/16 03:04:49;;;;;;;24.17;18.20;;;;;;;5.15;62.58;100414.78;5031416;28;20095;-77
2021/12/16 03:07:16;;;;;;;24.43;18.63;;;;;;;5.11;62.57;100419.44;5030309;28;20033;-77
2021/12/16 03:12:55;;;;;;;27.43;19.40;;;;;;;5.14;62.61;100414.91;5032074;28;20095;-77
2021/12/16 03:15:24;;;;;;;25.60;18.20;;;;;;;5.00;62.34;100414.22;5030299;28;20045;-76
2021/12/16 03:23:17;;;;;;;25.77;18.40;;;;;;;4.62;62.38;100358.84;5031787;28;20029;-76
2021/12/16 03:36:25;;;;;;;26.60;19.83;;;;;;;4.99;62.40;100419.56;5031550;28;20064;-77
2021/12/16 03:39:06;;;;;;;23.43;17.30;;;;;;;4.46;62.20;100344.34;5031537;28;20128;-78
2021/12/16 03:41:32;;;;;;;23.10;17.10;;;;;;;4.98;62.51;100429.22;5035345;28;20053;-77
2021/12/16 03:43:59;;;;;;;26.53;18.93;;;;;;;4.68;62.55;100371.44;5035457;28;20026;-76
2021/12/16 03:46:30;;;;;;;25.57;20.70;;;;;;;4.67;62.53;100367.16;5035371;28;20049;-77
2021/12/16 03:49:07;;;;;;;34.10;22.83;;;;;;;4.75;62.43;100376.06;5035189;28;20165;-76
2021/12/16 03:51:42;;;;;;;30.20;19.87;;;;;;;4.99;62.23;100423.03;5034964;28;20029;-77
2021/12/16 03:54:37;;;;;;;28.30;21.07;;;;;;;5.02;61.54;100416.72;5050659;28;20065;-77
2021/12/16 03:57:12;;;;;;;25.90;18.90;;;;;;;4.52;61.96;100343.03;5034457;28;20457;-76
2021/12/16 03:59:39;;;;;;;32.63;22.83;;;;;;;4.99;61.69;100409.09;5035146;28;20423;-76
2021/12/16 04:02:12;;;;;;;25.33;19.00;;;;;;;4.53;61.53;100344.69;5050935;28;20029;-77
2021/12/16 04:04:42;;;;;;;26.67;18.90;;;;;;;5.03;61.67;100410.53;5035491;28;20025;-77
2021/12/16 04:07:08;;;;;;;23.80;17.00;;;;;;;4.47;61.65;100337.34;5035862;28;20100;-77
2021/12/16 04:09:35;;;;;;;25.43;18.30;;;;;;;4.86;61.59;100417.09;5035128;28;20029;-77
2021/12/16 04:12:09;;;;;;;21.67;16.87;;;;;;;4.56;61.73;100372.41;5034375;28;20029;-77
2021/12/16 04:14:36;;;;;;;28.00;18.93;;;;;;;5.06;61.63;100426.00;5034508;28;20051;-76
2021/12/16 04:17:04;;;;;;;24.00;17.67;;;;;;;5.16;61.62;100431.31;5034107;28;20052;-77
2021/12/16 04:19:32;;;;;;;25.67;18.77;;;;;;;4.66;61.36;100349.81;5034336;28;20103;-77
2021/12/16 04:22:09;;;;;;;23.73;17.17;;;;;;;5.22;61.35;100428.25;5034410;28;20033;-77
2021/12/16 04:24:36;;;;;;;22.73;16.90;;;;;;;5.15;61.42;100416.56;5034363;28;20411;-77
2021/12/16 04:27:03;;;;;;;25.57;17.63;;;;;;;4.95;61.06;100384.97;5032908;28;20034;-76
2021/12/16 04:29:29;;;;;;;23.93;17.70;;;;;;;4.86;61.10;100383.06;5034154;28;20029;-77
2021/12/16 04:31:56;;;;;;;25.00;18.33;;;;;;;5.23;61.14;100443.00;5034314;28;20395;-77
2021/12/16 04:34:22;;;;;;;27.03;18.73;;;;;;;4.92;61.31;100382.59;5033852;28;20033;-77
2021/12/16 04:36:48;;;;;;;24.73;18.17;;;;;;;5.08;61.09;100424.09;5033960;28;20088;-77
2021/12/16 04:39:19;;;;;;;25.60;18.10;;;;;;;5.08;61.35;100414.44;5034391;28;20065;-77
2021/12/16 04:41:45;;;;;;;25.33;17.80;;;;;;;5.22;61.15;100442.19;5034219;28;20034;-77
2021/12/16 04:44:13;;;;;;;25.60;18.47;;;;;;;5.26;60.98;100442.75;5049784;28;20025;-76
2021/12/16 04:46:40;;;;;;;26.73;19.90;;;;;;;5.26;61.22;100445.38;5034405;28;20025;-77
2021/12/16 04:49:07;;;;;;;25.70;18.03;;;;;;;4.84;61.06;100382.38;5034315;28;20021;-77
2021/12/16 04:51:36;;;;;;;26.67;17.93;;;;;;;5.23;60.94;100443.00;5034065;28;20470;-77
2021/12/16 04:54:03;;;;;;;24.47;17.67;;;;;;;4.87;61.21;100399.59;5048821;28;20037;-76
2021/12/16 04:56:29;;;;;;;25.03;16.63;;;;;;;4.97;61.09;100414.47;5033397;28;20029;-77
2021/12/16 04:58:56;;;;;;;24.97;17.60;;;;;;;4.90;60.74;100402.81;5033814;28;20556;-76
2021/12/16 05:01:22;;;;;;;21.97;16.10;;;;;;;4.75;61.10;100389.16;5033826;28;20026;-77
2021/12/16 05:03:47;;;;;;;25.77;17.80;;;;;;;4.74;60.94;100386.66;5034118;28;20032;-76
2021/12/16 05:06:13;;;;;;;24.80;18.60;;;;;;;5.19;61.03;100452.03;5034224;28;20033;-77
2021/12/16 05:08:39;;;;;;;26.20;17.67;;;;;;;5.16;61.14;100452.28;5034151;28;20025;-76
2021/12/16 05:11:09;;;;;;;25.13;17.27;;;;;;;5.13;61.06;100457.75;5033876;28;20388;-77
2021/12/16 05:13:35;;;;;;;23.37;17.30;;;;;;;4.84;60.78;100410.31;5034025;28;20040;-77
2021/12/16 05:16:04;;;;;;;29.00;20.57;;;;;;;4.34;60.91;100333.97;5034082;28;20029;-77
2021/12/16 05:18:34;;;;;;;27.80;19.77;;;;;;;5.13;60.84;100452.50;5033243;28;20082;-77
2021/12/16 05:21:03;;;;;;;30.07;21.87;;;;;;;4.71;60.78;100395.56;5032916;28;20104;-77
2021/12/16 05:28:47;;;;;;;28.17;22.33;;;;;;;5.04;60.81;100444.44;5032859;28;20021;-77
2021/12/16 05:31:14;;;;;;;29.17;21.57;;;;;;;4.95;61.12;100436.47;5032924;28;20499;-77
2021/12/16 05:33:40;;;;;;;26.50;19.90;;;;;;;5.07;60.97;100467.75;5048396;28;20413;-77
2021/12/16 05:36:06;;;;;;;25.83;18.80;;;;;;;4.71;60.68;100415.66;5032747;28;20119;-77
2021/12/16 05:38:32;;;;;;;28.13;19.13;;;;;;;4.80;60.93;100412.34;5033063;28;20422;-77
2021/12/16 05:40:58;;;;;;;27.13;20.40;;;;;;;5.07;60.78;100453.81;5032807;28;20022;-77
2021/12/16 05:43:26;;;;;;;25.97;20.00;;;;;;;5.06;60.38;100455.63;5032855;28;20018;-77
2021/12/16 05:45:55;;;;;;;26.50;17.63;;;;;;;4.29;60.81;100342.19;5032862;28;20025;-77
2021/12/16 05:48:23;;;;;;;23.67;17.93;;;;;;;5.04;60.22;100465.38;5032773;28;20025;-76
2021/12/16 05:50:57;;;;;;;35.17;20.30;;;;;;;4.46;60.13;100369.66;5033023;28;20029;-77
2021/12/16 05:53:23;;;;;;;29.10;20.00;;;;;;;5.02;60.03;100472.50;5032660;28;20529;-77
2021/12/16 05:55:50;;;;;;;26.97;19.87;;;;;;;5.10;60.35;100451.78;5031584;28;20028;-77
2021/12/16 05:58:19;;;;;;;27.40;20.73;;;;;;;5.00;60.36;100432.53;5031428;28;20041;-77
2021/12/16 06:00:49;;;;;;;28.07;19.90;;;;;;;4.98;60.11;100429.22;5031649;28;20041;-77
2021/12/16 06:03:16;;;;;;;23.97;17.00;;;;;;;5.10;60.10;100443.13;5019128;28;20491;-77
2021/12/16 06:05:41;;;;;;;22.37;16.67;;;;;;;5.16;59.75;100468.81;5012594;28;20032;-77
2021/12/16 06:08:08;;;;;;;24.03;16.60;;;;;;;4.58;59.63;100388.81;5012947;28;20021;-77
2021/12/16 06:13:09;;;;;;;24.47;16.33;;;;;;;5.01;60.02;100463.00;5013006;28;20032;-77
2021/12/16 06:16:00;;;;;;;24.20;16.37;;;;;;;5.16;60.04;100457.50;5013547;28;20021;-77
2021/12/16 06:27:20;;;;;;;29.03;18.83;;;;;;;5.26;59.72;100472.41;4990842;28;20041;-77
2021/12/16 06:29:50;;;;;;;26.83;17.53;;;;;;;5.23;59.18;100453.47;4992336;28;20058;-77
2021/12/16 06:32:16;;;;;;;23.67;17.20;;;;;;;4.88;59.35;100391.63;5007516;28;20033;-77
2021/12/16 06:34:43;;;;;;;23.67;16.90;;;;;;;4.76;59.42;100382.13;5012210;28;20415;-76
2021/12/16 06:37:09;;;;;;;25.07;16.17;;;;;;;5.10;59.30;100427.41;5011908;28;20053;-77
2021/12/16 06:39:35;;;;;;;22.27;15.40;;;;;;;5.27;59.14;100458.34;5011042;28;20029;-77
2021/12/16 06:42:04;;;;;;;21.53;15.77;;;;;;;5.29;58.76;100455.63;5002765;28;20026;-77
2021/12/16 06:44:36;;;;;;;23.33;15.37;;;;;;;5.25;58.91;100473.34;4992054;28;20041;-77
2021/12/16 06:47:07;;;;;;;24.38;16.50;;;;;;;5.02;59.16;100437.66;5002637;28;20053;-77
2021/12/16 06:49:35;;;;;;;16.58;11.60;;;;;;;5.10;59.18;100448.34;5006169;28;20577;-77
2021/12/16 06:52:04;;;;;;;28.83;18.30;;;;;;;5.02;59.02;100429.81;5004635;28;20400;-77
2021/12/16 06:54:38;;;;;;;25.07;16.70;;;;;;;5.23;59.17;100449.06;5011714;28;20037;-77
2021/12/16 06:57:19;;;;;;;23.60;17.10;;;;;;;4.80;58.91;100386.19;5020156;28;20033;-76
2021/12/16 06:59:55;;;;;;;26.13;17.00;;;;;;;5.25;58.93;100460.25;4998093;28;20026;-77
2021/12/16 07:02:50;;;;;;;25.33;17.77;;;;;;;4.68;58.84;100384.53;5001999;28;20053;-77
2021/12/16 07:05:09;;;;;;;23.53;16.57;;;;;;;4.58;58.77;100375.72;5011681;28;20115;-76
2021/12/16 07:07:35;;;;;;;22.13;16.00;;;;;;;4.97;59.15;100437.19;5010311;28;20022;-77
2021/12/16 07:10:00;;;;;;;23.27;16.17;;;;;;;4.55;58.71;100400.34;5011722;28;20033;-77
2021/12/16 07:12:35;;;;;;;24.70;15.83;;;;;;;4.68;59.32;100421.97;5026492;28;20036;-76
2021/12/16 07:15:07;;;;;;;25.30;16.90;;;;;;;4.57;59.18;100415.91;5011840;28;20018;-76
2021/12/16 07:17:32;;;;;;;27.85;18.10;;;;;;;4.93;59.40;100461.94;5015882;28;20075;-77
2021/12/16 07:19:58;;;;;;;26.60;17.93;;;;;;;4.91;59.30;100448.97;5015317;28;20030;-77
2021/12/16 07:22:23;;;;;;;25.63;17.50;;;;;;;4.66;58.89;100415.19;5008334;28;20026;-76
2021/12/16 07:24:49;;;;;;;30.37;20.53;;;;;;;4.98;59.12;100465.00;5006973;28;20026;-77
2021/12/16 07:27:14;;;;;;;25.03;18.23;;;;;;;5.02;59.18;100476.91;4996188;28;20084;-77
2021/12/16 07:29:40;;;;;;;22.93;17.03;;;;;;;4.49;59.07;100398.19;5014359;28;20026;-77
2021/12/16 07:32:06;;;;;;;27.83;18.77;;;;;;;4.99;59.24;100491.06;5001486;28;20026;-76
2021/12/16 07:34:31;;;;;;;23.33;16.43;;;;;;;4.92;58.93;100468.94;5007291;28;20052;-77
2021/12/16 07:36:59;;;;;;;24.30;16.70;;;;;;;4.89;59.08;100455.25;5008596;28;20085;-77
2021/12/16 07:39:30;;;;;;;25.23;17.43;;;;;;;4.92;59.02;100447.19;5014956;28;20391;-77
2021/12/16 07:41:57;;;;;;;22.30;15.30;;;;;;;5.08;58.70;100487.72;5014239;28;20438;-77
2021/12/16 07:44:23;;;;;;;27.03;18.17;;;;;;;5.02;58.73;100466.44;5013140;28;20037;-77
2021/12/16 07:46:53;;;;;;;24.50;17.03;;;;;;;5.19;58.88;100484.28;5007480;28;20029;-77
2021/12/16 07:49:23;;;;;;;27.00;19.70;;;;;;;4.86;58.55;100421.50;5008792;28;20109;-76
2021/12/16 07:51:48;;;;;;;21.40;15.10;;;;;;;5.11;58.45;100481.44;5001145;28;20034;-77
2021/12/16 07:54:15;;;;;;;19.60;15.20;;;;;;;5.23;58.79;100472.63;4999286;28;20040;-77
2021/12/16 07:56:42;;;;;;;21.93;15.60;;;;;;;5.30;58.50;100488.69;5016901;28;20025;-78
2021/12/16 07:59:08;;;;;;;22.47;15.03;;;;;;;5.18;58.35;100453.81;5014729;28;20057;-77
2021/12/16 08:01:35;;;;;;;20.37;14.37;;;;;;;5.06;58.12;100452.16;5004731;28;20023;-77
2021/12/16 08:04:01;;;;;;;21.37;14.47;;;;;;;5.16;58.10;100467.97;5001518;28;20018;-77
2021/12/16 08:06:28;;;;;;;19.77;14.43;;;;;;;5.26;58.27;100469.78;5014113;28;20044;-77
2021/12/16 08:08:58;;;;;;;19.30;13.30;;;;;;;5.29;58.06;100464.28;5013278;28;20032;-76
2021/12/16 08:11:26;;;;;;;24.10;17.60;;;;;;;4.76;57.97;100387.38;5003695;28;20416;-77
2021/12/16 08:13:52;;;;;;;22.93;16.00;;;;;;;5.45;58.04;100490.09;5013450;28;20021;-77
2021/12/16 08:16:22;;;;;;;20.20;14.37;;;;;;;5.00;58.12;100410.78;5014987;28;20469;-77
2021/12/16 08:18:49;;;;;;;21.17;15.33;;;;;;;5.50;57.88;100489.72;5007428;28;20023;-76
2021/12/16 08:21:14;;;;;;;22.80;14.43;;;;;;;5.11;57.83;100421.22;5012381;28;20037;-77
2021/12/16 08:23:39;;;;;;;21.20;15.37;;;;;;;5.49;57.93;100490.69;5004089;28;20022;-82
2021/12/16 08:26:05;;;;;;;19.10;13.00;;;;;;;5.55;57.84;100490.19;5015222;28;20423;-82
2021/12/16 08:28:30;;;;;;;22.30;15.60;;;;;;;5.51;57.65;100494.00;5015413;28;20026;-82
2021/12/16 08:30:56;;;;;;;20.20;15.33;;;;;;;5.45;57.77;100477.00;5013560;28;20519;-82
2021/12/16 08:33:21;;;;;;;24.37;16.20;;;;;;;5.49;57.78;100485.44;5010079;28;20483;-81
2021/12/16 08:35:50;;;;;;;26.53;17.80;;;;;;;5.64;57.75;100492.91;5011250;28;20040;-82
2021/12/16 08:38:19;;;;;;;27.17;18.47;;;;;;;5.54;57.77;100460.56;5009353;28;20517;-82
2021/12/16 08:40:47;;;;;;;22.80;16.17;;;;;;;5.21;57.54;100408.25;4996443;28;20026;-82
2021/12/16 08:43:13;;;;;;;20.20;15.43;;;;;;;5.77;57.44;100482.28;5011635;28;20022;-82
2021/12/16 08:45:41;;;;;;;21.23;14.63;;;;;;;5.49;57.82;100438.31;5000981;28;20104;-82
2021/12/16 08:48:08;;;;;;;21.00;15.37;;;;;;;5.84;57.31;100482.59;5004960;28;20026;-82
2021/12/16 08:50:37;;;;;;;18.73;14.50;;;;;;;5.86;57.01;100494.63;5011605;28;20095;-82
2021/12/16 08:53:05;;;;;;;18.80;14.07;;;;;;;5.32;56.98;100403.84;5011769;28;20014;-81
2021/12/16 08:55:32;;;;;;;18.57;13.60;;;;;;;5.67;57.37;100452.53;5002056;28;20495;-82
2021/12/16 08:57:58;;;;;;;20.93;15.23;;;;;;;5.72;57.19;100455.59;4992370;28;20030;-84
2021/12/16 09:00:29;;;;;;;22.10;15.97;;;;;;;5.97;56.92;100485.94;5005969;28;20026;-82
2021/12/16 09:02:55;;;;;;;26.07;17.97;;;;;;;5.95;57.13;100480.84;5001122;28;20439;-83
2021/12/16 09:05:21;;;;;;;21.33;15.83;;;;;;;5.73;57.06;100436.31;4994884;28;20022;-83
2021/12/16 09:07:48;;;;;;;26.10;18.50;;;;;;;5.39;56.89;100364.88;5004686;28;20022;-82
2021/12/16 09:10:25;;;;;;;21.80;14.73;;;;;;;5.81;57.06;100422.59;4992102;28;20042;-84
2021/12/16 09:13:02;;;;;;;20.53;14.17;;;;;;;6.27;57.32;100482.59;4995875;28;20514;-83
2021/12/16 09:15:35;;;;;;;17.90;13.73;;;;;;;6.18;56.86;100483.34;4992758;28;20026;-83
2021/12/16 09:18:02;;;;;;;19.40;13.40;;;;;;;5.86;56.66;100425.66;4993213;28;20109;-83
2021/12/16 09:20:28;;;;;;;20.50;14.43;;;;;;;6.28;57.20;100489.50;4991575;28;20030;-84
2021/12/16 09:22:54;;;;;;;23.27;15.93;;;;;;;5.69;57.06;100385.94;4994752;28;20030;-85
2021/12/16 09:25:21;;;;;;;28.50;17.60;;;;;;;6.43;56.64;100476.91;4993592;28;20018;-81
2021/12/16 09:27:47;;;;;;;24.20;16.30;;;;;;;6.43;56.90;100472.47;4998382;28;20014;-83
2021/12/16 09:30:15;;;;;;;22.80;16.77;;;;;;;6.50;57.22;100473.63;5001869;28;20058;-82
2021/12/16 09:32:41;;;;;;;22.63;15.73;;;;;;;6.47;56.84;100454.69;4992765;28;20022;-82
2021/12/16 09:35:09;;;;;;;21.20;15.03;;;;;;;6.58;56.88;100462.47;4993121;28;20026;-81
2021/12/16 09:37:35;;;;;;;22.03;15.33;;;;;;;6.16;56.73;100407.44;4994350;28;20462;-82
2021/12/16 09:40:02;;;;;;;20.70;15.63;;;;;;;6.60;56.82;100460.56;4999154;28;20023;-85
2021/12/16 09:42:28;;;;;;;21.90;15.30;;;;;;;6.18;56.30;100389.78;4991824;28;20563;-83
2021/12/16 09:44:54;;;;;;;23.37;16.90;;;;;;;6.05;56.32;100376.06;4999144;28;20100;-82
2021/12/16 09:47:23;;;;;;;22.00;15.10;;;;;;;6.14;56.92;100384.94;4995799;28;20041;-82
2021/12/16 09:49:49;;;;;;;23.63;17.03;;;;;;;5.90;56.65;100356.34;4992243;28;20048;-82
2021/12/16 09:52:15;;;;;;;25.63;17.37;;;;;;;6.17;56.37;100387.28;5003050;28;20113;-82
2021/12/16 09:54:43;;;;;;;27.83;18.67;;;;;;;5.87;56.64;100351.31;4995841;28;20045;-84
2021/12/16 09:57:10;;;;;;;28.70;20.20;;;;;;;6.51;56.97;100440.34;5011198;28;20040;-82
2021/12/16 09:59:36;;;;;;;27.88;18.30;;;;;;;6.52;57.08;100436.78;5011756;28;20040;-83
2021/12/16 10:02:08;;;;;;;25.47;17.10;;;;;;;6.49;56.78;100429.16;5020255;28;20030;-83
2021/12/16 10:04:35;;;;;;;25.20;17.30;;;;;;;6.53;56.69;100425.31;5013487;28;20581;-83
2021/12/16 10:07:05;;;;;;;25.43;18.47;;;;;;;6.55;56.84;100423.38;5039817;28;20056;-83
2021/12/16 10:09:31;;;;;;;28.73;20.00;;;;;;;6.38;56.96;100388.94;5011236;28;20028;-83
2021/12/16 10:12:05;;;;;;;25.70;18.02;;;;;;;6.59;56.87;100420.38;5010371;28;20108;-84
2021/12/16 10:14:43;;;;;;;28.90;20.13;;;;;;;6.38;56.85;100367.94;5002815;28;20033;-83
2021/12/16 10:19:46;;;;;;;30.27;21.73;;;;;;;6.60;57.19;100368.72;4992154;28;20431;-84
2021/12/16 10:22:35;;;;;;;28.53;19.23;;;;;;;6.72;56.94;100404.44;4992223;28;20022;-84
2021/12/16 10:25:41;;;;;;;28.97;21.07;;;;;;;6.20;56.66;100306.59;4994922;28;20030;-85
2021/12/16 10:28:16;;;;;;;28.13;20.43;;;;;;;6.51;56.81;100343.28;4955494;28;20102;-85
2021/12/16 10:30:50;;;;;;;31.07;22.37;;;;;;;6.84;57.22;100390.25;4951090;28;20054;-84
2021/12/16 10:33:19;;;;;;;36.63;25.23;;;;;;;6.94;56.76;100395.53;4975784;28;20479;-83
2021/12/16 10:35:47;;;;;;;25.45;20.25;;;;;;;6.96;57.33;100385.72;5005133;28;20073;-85
2021/12/16 10:38:17;;;;;;;24.07;17.70;;;;;;;6.60;57.62;100352.97;5008385;28;20021;-85
2021/12/16 10:40:49;;;;;;;28.33;18.40;;;;;;;6.85;57.63;100377.97;5007898;28;20026;-84
2021/12/16 10:43:38;;;;;;;30.37;19.50;;;;;;;6.80;57.68;100377.53;5011256;28;20101;-83
2021/12/16 10:46:14;;;;;;;30.00;20.88;;;;;;;6.82;57.28;100380.84;5021389;28;20026;-83
2021/12/16 10:48:53;;;;;;;28.63;19.52;;;;;;;6.77;57.17;100373.38;4991457;28;20035;-82
2021/12/16 10:51:23;;;;;;;24.40;17.23;;;;;;;6.69;57.57;100362.72;5005310;28;20017;-84
2021/12/16 10:53:52;;;;;;;26.27;19.77;;;;;;;6.86;57.36;100383.06;5009612;28;20034;-82
2021/12/16 10:56:22;;;;;;;28.10;17.73;;;;;;;6.84;57.83;100365.78;5004627;28;20026;-84
2021/12/16 10:58:59;;;;;;;28.13;19.90;;;;;;;6.91;57.71;100375.63;4995667;28;20060;-83
2021/12/16 11:01:46;;;;;;;24.15;18.30;;;;;;;6.94;57.14;100374.53;5005841;28;20110;-83
2021/12/16 11:04:27;;;;;;;27.73;18.13;;;;;;;6.71;57.18;100329.28;5006632;28;20022;-83
2021/12/16 11:06:52;;;;;;;28.67;19.67;;;;;;;6.95;56.93;100368.31;5009728;28;20026;-83
2021/12/16 11:09:39;;;;;;;48.42;29.25;;;;;;;6.98;57.16;100379.38;4999601;28;20034;-84
2021/12/16 11:12:34;;;;;;;34.38;22.90;;;;;;;6.75;57.07;100327.22;5008352;28;20450;-82
2021/12/16 11:15:19;;;;;;;27.83;18.42;;;;;;;6.83;56.92;100330.03;5004053;28;20048;-83
2021/12/16 11:17:49;;;;;;;26.20;18.33;;;;;;;6.58;56.68;100313.75;5006753;28;20555;-82
2021/12/16 11:20:29;;;;;;;23.08;18.00;;;;;;;7.11;56.72;100368.63;5008986;28;20045;-83
2021/12/16 11:23:12;;;;;;;25.80;19.15;;;;;;;7.14;56.60;100378.03;5010625;28;20495;-83
2021/12/16 11:25:44;;;;;;;28.30;18.48;;;;;;;6.85;56.86;100326.28;4999217;28;20033;-84
2021/12/16 11:28:31;;;;;;;25.98;19.33;;;;;;;6.91;56.56;100332.78;5006582;28;20022;-82
2021/12/16 11:31:06;;;;;;;26.95;18.05;;;;;;;7.22;56.71;100365.88;4991589;28;20053;-83
2021/12/16 11:33:38;;;;;;;27.70;19.05;;;;;;;7.15;57.12;100338.50;4996279;28;20026;-83
2021/12/16 11:36:33;;;;;;;23.85;17.88;;;;;;;7.29;56.78;100353.84;5003387;28;20510;-84
2021/12/16 11:39:19;;;;;;;29.58;18.90;;;;;;;7.36;56.88;100361.19;4997123;28;20065;-83
2021/12/16 11:42:01;;;;;;;26.13;19.50;;;;;;;6.71;57.03;100239.25;4997159;28;20071;-84
2021/12/16 11:44:33;;;;;;;28.02;19.13;;;;;;;7.43;56.78;100355.28;4990258;28;20026;-84
2021/12/16 11:47:02;;;;;;;25.88;18.27;;;;;;;7.48;57.16;100353.06;4996173;28;20121;-85
2021/12/16 11:49:33;;;;;;;25.33;18.33;;;;;;;7.55;57.10;100356.78;5001164;28;20033;-85
2021/12/16 11:52:15;;;;;;;27.75;16.70;;;;;;;7.00;56.36;100271.59;5007717;28;20060;-84
2021/12/16 11:54:46;;;;;;;;;;;;;;;7.46;56.49;100352.38;4996892;28;20030;-85
2021/12/16 11:57:12;;;;;;;28.00;20.52;;;;;;;7.55;56.52;100345.44;5004399;28;20284;-85
2021/12/16 11:59:40;;;;;;;26.02;17.90;;;;;;;7.56;56.51;100352.38;5007844;28;20040;-83
2021/12/16 12:02:07;;;;;;;27.02;16.73;;;;;;;6.98;56.46;100268.28;4997494;28;20583;-82
2021/12/16 12:04:36;;;;;;;26.50;18.98;;;;;;;6.48;56.80;100179.13;5013609;28;20029;-83
2021/12/16 12:07:11;;;;;;;26.02;18.48;;;;;;;6.96;56.49;100251.84;5002260;28;20029;-85
2021/12/16 12:09:45;;;;;;;24.63;17.15;;;;;;;7.51;56.75;100352.78;4994700;28;20538;-83
2021/12/16 12:12:12;;;;;;;26.10;19.23;;;;;;;7.28;56.91;100317.22;5001131;28;20030;-81
2021/12/16 12:14:40;;;;;;;25.17;17.48;;;;;;;7.47;57.23;100361.91;5009118;28;20088;-85
2021/12/16 12:17:20;;;;;;;26.88;20.08;;;;;;;7.58;57.33;100351.25;4996644;28;20080;-85
2021/12/16 12:19:49;;;;;;;26.42;20.15;;;;;;;7.60;57.24;100354.59;5000554;28;20034;-84
2021/12/16 12:22:20;;;;;;;26.52;19.20;;;;;;;6.79;57.72;100228.91;5013123;28;20415;-84
2021/12/16 12:24:49;;;;;;;25.10;19.13;;;;;;;7.23;57.93;100311.56;5010515;28;20034;-77
2021/12/16 12:27:23;;;;;;;25.58;19.52;;;;;;;7.53;58.09;100361.34;5008431;28;20034;-78
2021/12/16 12:30:05;;;;;;;30.23;21.05;;;;;;;7.56;58.17;100368.13;5013380;28;20030;-77
2021/12/16 12:32:33;;;;;;;26.67;18.58;;;;;;;7.17;57.84;100312.09;5030576;28;20060;-78
2021/12/16 12:35:21;;;;;;;24.55;17.92;;;;;;;7.46;57.96;100351.53;5003718;28;20511;-78
2021/12/16 12:37:50;;;;;;;25.98;20.30;;;;;;;6.79;58.11;100242.00;5004168;28;20057;-78
2021/12/16 12:40:23;;;;;;;27.38;21.65;;;;;;;7.56;58.15;100360.25;5005342;28;20112;-77
2021/12/16 12:42:50;;;;;;;28.50;21.15;;;;;;;7.46;58.10;100349.75;5010639;28;20049;-78
2021/12/16 12:45:19;;;;;;;26.17;20.92;;;;;;;7.54;58.84;100367.44;5005661;28;20044;-78
2021/12/16 12:47:49;;;;;;;28.83;19.88;;;;;;;7.21;58.81;100316.94;5006777;28;20030;-77
2021/12/16 12:50:22;;;;;;;30.40;22.15;;;;;;;7.18;58.32;100313.75;4999252;28;20029;-77
2021/12/16 12:52:51;;;;;;;27.85;19.65;;;;;;;7.02;59.19;100285.41;5011825;28;20028;-77
2021/12/16 12:55:29;;;;;;;26.58;20.17;;;;;;;7.48;58.88;100363.56;5011346;28;20029;-78
2021/12/16 12:58:19;;;;;;;27.27;19.02;;;;;;;7.45;59.42;100363.03;4997186;28;20049;-77
2021/12/16 13:00:55;;;;;;;23.77;17.92;;;;;;;7.12;59.89;100323.00;4995042;28;20088;-77
2021/12/16 13:03:28;;;;;;;23.70;18.08;;;;;;;7.46;60.36;100360.25;5005277;28;20108;-78
2021/12/16 13:06:12;;;;;;;24.20;18.27;;;;;;;7.45;60.34;100376.97;5000389;28;20030;-77
2021/12/16 13:08:43;;;;;;;24.63;18.02;;;;;;;6.94;60.13;100286.09;4996197;28;20036;-77
2021/12/16 13:11:19;;;;;;;23.98;17.98;;;;;;;7.14;59.92;100312.38;4996307;28;20128;-78
2021/12/16 13:14:22;;;;;;;23.27;16.85;;;;;;;7.40;59.87;100363.41;4996817;28;20592;-78
2021/12/16 13:28:07;;;;;;;23.02;15.57;;;;;;;7.27;60.20;100340.03;4993339;28;20039;-78
2021/12/16 13:30:41;;;;;;;21.48;16.38;;;;;;;7.38;59.73;100359.25;4992938;28;20034;-78
2021/12/16 13:33:17;;;;;;;23.83;17.42;;;;;;;7.43;60.01;100370.19;5000553;28;20029;-78
2021/12/16 13:35:51;;;;;;;18.65;13.65;;;;;;;7.41;60.30;100366.84;5002607;28;20046;-78
2021/12/16 13:38:20;;;;;;;19.23;15.15;;;;;;;7.27;60.25;100349.69;5007206;28;20038;-78
2021/12/16 13:40:47;;;;;;;18.60;13.48;;;;;;;7.36;60.81;100359.38;5009724;28;20466;-78
2021/12/16 13:43:18;;;;;;;17.10;13.73;;;;;;;7.37;60.74;100362.84;5012088;28;20025;-78
2021/12/16 13:46:06;;;;;;;17.65;14.00;;;;;;;6.84;60.80;100280.00;5013844;28;20464;-79
2021/12/16 14:05:16;;;;;;;39.47;28.70;;;;;;;7.14;62.44;100373.59;5012904;28;20034;-78
2021/12/16 14:07:57;;;;;;;32.38;23.55;;;;;;;7.13;62.16;100371.13;4992321;28;20033;-77
2021/12/16 14:24:49;;;;;;;55.40;38.90;;;;;;;6.88;64.10;100367.19;4997239;28;20092;-83
2021/12/16 14:31:07;;;;;;;36.88;27.98;;;;;;;5.87;63.60;100208.00;5011253;28;20026;-82
2021/12/16 14:41:14;;;;;;;40.75;28.30;;;;;;;6.71;65.15;100357.34;5010238;28;20509;-84
2021/12/16 14:43:57;;;;;;;35.00;24.55;;;;;;;6.36;65.04;100325.28;5024728;28;20058;-81
2021/12/16 14:46:25;;;;;;;32.45;23.70;;;;;;;6.42;65.04;100355.41;4990674;28;20035;-83
2021/12/16 14:48:51;;;;;;;32.47;21.77;;;;;;;5.95;65.63;100236.25;5003761;28;20025;-83
2021/12/16 14:51:17;;;;;;;31.70;21.48;;;;;;;6.08;65.38;100263.06;5002535;28;20033;-84
2021/12/16 14:53:54;;;;;;;29.35;21.20;;;;;;;6.65;65.79;100359.50;5002016;28;20033;-83
2021/12/16 14:56:29;;;;;;;33.45;22.77;;;;;;;6.66;66.17;100365.56;5002555;28;20030;-83
2021/12/16 14:59:05;;;;;;;31.45;21.95;;;;;;;6.04;66.01;100256.44;5004414;28;20068;-85